Time;durP1;ratioP1;P1;durP2;ratioP2;P2;SDS_P1;SDS_P2;PMS_P1;PMS_P2;Temp;Humidity;BMP_temperature;BMP_pressure;BME280_temperature;BME280_humidity;BME280_pressure;Samples;Min_cycle;Max_cycle;Signal;HPM_P1;HPM_P2
2023/04/18 00:01:13;;;;;;;1.50;0.80;;;21.80;47.80;;;;;;5037783;28;20410;-66
2023/04/18 00:03:39;;;;;;;1.27;0.80;;;21.80;47.80;;;;;;5036429;28;20040;-66
2023/04/18 00:06:05;;;;;;;1.90;0.98;;;21.80;47.80;;;;;;5038364;28;20401;-66
2023/04/18 00:08:31;;;;;;;1.00;0.77;;;21.70;47.80;;;;;;5038185;28;20028;-66
2023/04/18 00:10:57;;;;;;;1.45;0.90;;;21.70;47.80;;;;;;5041337;28;20022;-65
2023/04/18 00:13:23;;;;;;;1.17;0.85;;;21.70;47.80;;;;;;5037957;28;20036;-66
2023/04/18 00:15:48;;;;;;;1.30;0.80;;;21.80;47.80;;;;;;5035937;28;20021;-65
2023/04/18 00:18:16;;;;;;;1.25;0.80;;;21.70;47.80;;;;;;5039914;28;20025;-65
2023/04/18 00:20:42;;;;;;;1.25;0.90;;;21.70;47.80;;;;;;5038847;28;20424;-66
2023/04/18 00:23:08;;;;;;;1.35;0.80;;;21.70;47.80;;;;;;5039526;28;20148;-66
2023/04/18 00:25:33;;;;;;;1.20;0.80;;;21.70;47.80;;;;;;5039548;28;20496;-66
2023/04/18 00:27:59;;;;;;;1.02;0.77;;;21.70;47.80;;;;;;5037472;28;20115;-64
2023/04/18 00:30:25;;;;;;;1.13;0.80;;;21.70;47.80;;;;;;5037391;28;20037;-65
2023/04/18 00:32:51;;;;;;;1.25;0.80;;;21.70;47.80;;;;;;5040228;28;20033;-65
2023/04/18 00:35:18;;;;;;;1.30;0.73;;;21.70;47.80;;;;;;5038433;28;20025;-65
2023/04/18 00:37:44;;;;;;;1.58;0.80;;;21.70;47.80;;;;;;5038752;28;20036;-66
2023/04/18 00:40:10;;;;;;;1.45;0.80;;;21.70;47.80;;;;;;5039028;28;20544;-66
2023/04/18 00:42:35;;;;;;;1.00;0.73;;;21.70;47.80;;;;;;5037981;28;20486;-66
2023/04/18 00:45:01;;;;;;;1.00;0.80;;;21.70;47.80;;;;;;5039130;28;20036;-66
2023/04/18 00:47:27;;;;;;;1.42;0.90;;;21.70;47.80;;;;;;5040991;28;20025;-66
2023/04/18 00:49:53;;;;;;;1.13;0.75;;;21.70;47.80;;;;;;5038587;28;20026;-66
2023/04/18 00:52:19;;;;;;;1.33;0.75;;;21.70;47.80;;;;;;5039490;28;20401;-66
2023/04/18 00:54:46;;;;;;;1.60;0.88;;;21.70;47.80;;;;;;5037805;28;20029;-66
2023/04/18 00:57:12;;;;;;;1.58;0.90;;;21.60;47.80;;;;;;5037964;28;20102;-65
2023/04/18 00:59:38;;;;;;;1.17;0.80;;;21.60;47.80;;;;;;5039612;28;20037;-65
2023/04/18 01:02:04;;;;;;;2.10;0.98;;;21.60;47.80;;;;;;5037174;28;20037;-65
2023/04/18 01:04:31;;;;;;;1.25;0.70;;;21.60;47.80;;;;;;5035857;28;20039;-65
2023/04/18 01:06:57;;;;;;;1.40;0.80;;;21.60;47.80;;;;;;5037846;28;20021;-65
2023/04/18 01:09:24;;;;;;;1.13;0.80;;;21.60;47.80;;;;;;5037527;28;20068;-66
2023/04/18 01:11:50;;;;;;;1.20;0.90;;;21.60;47.80;;;;;;5039206;28;20398;-66
2023/04/18 01:14:17;;;;;;;0.80;0.70;;;21.60;47.80;;;;;;5040271;28;20025;-65
2023/04/18 01:16:43;;;;;;;0.93;0.80;;;21.60;47.80;;;;;;5040008;28;20017;-65
2023/04/18 01:19:08;;;;;;;1.25;0.80;;;21.60;47.80;;;;;;5041608;28;20560;-65
2023/04/18 01:21:35;;;;;;;1.02;0.88;;;21.60;47.80;;;;;;5039803;28;20036;-65
2023/04/18 01:24:12;;;;;;;1.60;0.90;;;21.60;47.80;;;;;;5041825;28;20049;-66
2023/04/18 01:26:38;;;;;;;1.42;0.88;;;21.60;47.80;;;;;;5041606;28;20028;-66
2023/04/18 01:29:04;;;;;;;1.20;0.75;;;21.60;47.80;;;;;;5042314;28;20477;-66
2023/04/18 01:31:34;;;;;;;1.08;0.70;;;21.60;47.80;;;;;;5043040;28;20032;-66
2023/04/18 01:33:59;;;;;;;;;;;21.60;47.90;;;;;;5041705;28;20030;-67
2023/04/18 01:36:26;;;;;;;1.17;0.90;;;21.60;47.90;;;;;;5037531;28;19909;-66
2023/04/18 01:38:51;;;;;;;2.22;0.93;;;21.60;47.80;;;;;;5040395;28;20060;-66
2023/04/18 01:41:17;;;;;;;1.00;0.77;;;21.50;47.80;;;;;;5043390;28;20434;-66
2023/04/18 01:43:43;;;;;;;1.05;0.70;;;21.50;47.80;;;;;;5042448;28;20374;-66
2023/04/18 01:46:08;;;;;;;1.27;0.82;;;21.50;47.80;;;;;;5042762;28;20029;-66
2023/04/18 01:48:34;;;;;;;1.40;0.95;;;21.50;47.80;;;;;;5041062;28;20387;-67
2023/04/18 01:50:59;;;;;;;1.42;0.90;;;21.60;47.90;;;;;;5040224;28;20029;-66
2023/04/18 01:53:25;;;;;;;1.20;0.82;;;21.50;47.80;;;;;;5041989;28;20017;-66
2023/04/18 01:55:51;;;;;;;0.75;0.75;;;21.50;47.80;;;;;;5041410;28;20036;-67
2023/04/18 01:58:21;;;;;;;0.88;0.70;;;21.50;47.90;;;;;;5042014;28;20021;-66
2023/04/18 02:00:49;;;;;;;1.20;0.88;;;21.50;47.90;;;;;;5041977;28;20032;-66
2023/04/18 02:03:15;;;;;;;1.40;0.80;;;21.50;47.90;;;;;;5042450;28;20060;-66
2023/04/18 02:05:41;;;;;;;1.70;0.82;;;21.50;47.90;;;;;;5040166;28;20037;-66
2023/04/18 02:08:07;;;;;;;1.42;0.80;;;21.50;47.90;;;;;;5042197;28;20025;-65
2023/04/18 02:10:32;;;;;;;0.98;0.80;;;21.50;47.90;;;;;;5041650;28;20032;-65
2023/04/18 02:12:58;;;;;;;0.93;0.70;;;21.50;47.90;;;;;;5039035;28;20462;-66
2023/04/18 02:15:24;;;;;;;1.33;0.80;;;21.50;47.90;;;;;;5039203;28;20091;-67
2023/04/18 02:17:49;;;;;;;1.10;0.70;;;21.50;47.80;;;;;;5042484;28;20075;-66
2023/04/18 02:20:15;;;;;;;1.05;0.77;;;21.50;47.90;;;;;;5041786;28;20033;-66
2023/04/18 02:22:42;;;;;;;1.50;0.90;;;21.50;47.90;;;;;;5042561;28;20481;-66
2023/04/18 02:25:08;;;;;;;1.60;0.85;;;21.50;47.90;;;;;;5040834;28;20465;-65
2023/04/18 02:27:34;;;;;;;1.23;0.80;;;21.50;47.90;;;;;;5040075;28;20056;-66
2023/04/18 02:29:59;;;;;;;0.98;0.73;;;21.50;47.90;;;;;;5039349;28;20036;-65
2023/04/18 02:32:25;;;;;;;0.90;0.80;;;21.50;47.90;;;;;;5041926;28;20025;-66
2023/04/18 02:34:50;;;;;;;1.02;0.80;;;21.50;47.90;;;;;;5041034;28;20377;-66
2023/04/18 02:37:16;;;;;;;1.55;0.90;;;21.40;47.90;;;;;;5054847;28;20175;-66
2023/04/18 02:39:41;;;;;;;0.70;0.70;;;21.50;47.90;;;;;;5039563;28;20029;-66
2023/04/18 02:42:07;;;;;;;1.17;0.73;;;21.40;47.90;;;;;;5039772;28;20029;-66
2023/04/18 02:44:33;;;;;;;0.93;0.80;;;21.40;47.90;;;;;;5041408;28;20029;-63
2023/04/18 02:46:59;;;;;;;1.02;0.90;;;21.40;47.80;;;;;;5042014;28;20079;-65
2023/04/18 02:49:24;;;;;;;1.05;0.70;;;21.40;47.90;;;;;;5040932;28;20021;-65
2023/04/18 02:51:54;;;;;;;2.08;0.90;;;21.40;47.90;;;;;;5040208;28;20514;-66
2023/04/18 02:54:19;;;;;;;1.73;0.90;;;21.40;47.90;;;;;;5042368;28;20017;-67
2023/04/18 02:56:45;;;;;;;1.58;1.00;;;21.40;47.80;;;;;;5041717;28;20025;-66
2023/04/18 02:59:10;;;;;;;1.20;0.90;;;21.40;47.80;;;;;;5042285;28;20021;-66
2023/04/18 03:01:36;;;;;;;1.88;1.10;;;21.40;47.90;;;;;;5040065;28;20033;-66
2023/04/18 03:04:02;;;;;;;1.20;0.90;;;21.40;47.90;;;;;;5041780;28;20464;-65
2023/04/18 03:06:28;;;;;;;1.00;0.80;;;21.40;47.90;;;;;;5039273;28;20033;-65
2023/04/18 03:08:54;;;;;;;0.98;0.73;;;21.40;47.90;;;;;;5041192;28;20037;-65
2023/04/18 03:11:23;;;;;;;1.40;1.00;;;21.40;47.90;;;;;;5041246;28;20119;-66
2023/04/18 03:13:49;;;;;;;1.17;0.90;;;21.40;48.40;;;;;;5040594;28;20029;-66
2023/04/18 03:16:15;;;;;;;1.00;0.90;;;21.40;47.90;;;;;;5040885;28;20087;-66
2023/04/18 03:18:40;;;;;;;1.55;1.00;;;21.40;47.90;;;;;;5039931;28;20029;-66
2023/04/18 03:21:06;;;;;;;1.05;0.85;;;21.40;47.90;;;;;;5039689;28;20082;-66
2023/04/18 03:23:32;;;;;;;1.15;0.85;;;21.30;47.90;;;;;;5039239;28;20025;-64
2023/04/18 03:25:57;;;;;;;1.80;0.80;;;21.40;47.90;;;;;;5039394;28;20025;-66
2023/04/18 03:28:23;;;;;;;0.80;0.75;;;21.40;47.90;;;;;;5040510;28;20413;-66
2023/04/18 03:30:49;;;;;;;1.20;0.90;;;21.40;47.90;;;;;;5040290;28;20428;-66
2023/04/18 03:33:15;;;;;;;1.40;0.90;;;21.40;47.90;;;;;;5043595;28;20022;-66
2023/04/18 03:35:41;;;;;;;0.73;0.70;;;21.40;47.90;;;;;;5041651;28;20099;-66
2023/04/18 03:38:07;;;;;;;1.15;0.80;;;21.40;47.90;;;;;;5037571;28;20059;-66
2023/04/18 03:40:33;;;;;;;1.17;0.90;;;21.30;47.90;;;;;;5041137;28;20067;-66
2023/04/18 03:42:58;;;;;;;1.17;1.02;;;21.30;47.90;;;;;;5042627;28;20052;-66
2023/04/18 03:45:24;;;;;;;1.27;0.82;;;21.30;47.90;;;;;;5040211;28;20036;-66
2023/04/18 03:47:50;;;;;;;1.30;1.00;;;21.40;47.90;;;;;;5040474;28;20037;-66
2023/04/18 03:50:16;;;;;;;1.65;1.00;;;21.30;47.90;;;;;;5037421;28;20757;-66
2023/04/18 03:52:41;;;;;;;1.20;0.90;;;21.30;47.90;;;;;;5038666;28;20028;-66
2023/04/18 03:55:07;;;;;;;1.02;0.82;;;21.30;47.90;;;;;;5039684;28;20461;-66
2023/04/18 03:57:33;;;;;;;1.10;0.80;;;21.30;47.90;;;;;;5037962;28;20071;-68
2023/04/18 03:59:58;;;;;;;0.90;0.80;;;21.30;47.90;;;;;;5038874;28;20025;-66
2023/04/18 04:02:24;;;;;;;0.98;0.80;;;21.30;47.90;;;;;;5040382;28;20025;-66
2023/04/18 04:04:50;;;;;;;0.90;0.80;;;21.30;47.90;;;;;;5040464;28;20129;-66
2023/04/18 04:07:15;;;;;;;1.10;0.80;;;21.30;47.90;;;;;;5038945;28;20017;-67
2023/04/18 04:09:41;;;;;;;1.50;0.90;;;21.30;47.90;;;;;;5037971;28;20030;-66
2023/04/18 04:12:07;;;;;;;1.33;0.80;;;21.30;47.90;;;;;;5038815;28;20018;-67
2023/04/18 04:14:32;;;;;;;0.88;0.80;;;21.30;47.90;;;;;;5038098;28;20378;-66
2023/04/18 04:16:58;;;;;;;1.10;0.90;;;21.30;47.90;;;;;;5037071;28;20061;-66
2023/04/18 04:19:24;;;;;;;1.63;0.90;;;21.30;48.00;;;;;;5040873;28;20032;-66
2023/04/18 04:21:49;;;;;;;1.45;0.90;;;21.30;47.90;;;;;;5036364;28;20037;-67
2023/04/18 04:24:15;;;;;;;1.58;1.13;;;21.30;47.90;;;;;;5036898;28;20033;-66
2023/04/18 04:26:42;;;;;;;1.40;1.10;;;21.30;47.90;;;;;;5039619;28;20481;-66
2023/04/18 04:29:09;;;;;;;1.52;1.20;;;21.30;47.80;;;;;;5039142;28;20469;-64
2023/04/18 04:31:35;;;;;;;1.92;1.10;;;21.30;47.80;;;;;;5038805;28;20115;-64
2023/04/18 04:34:02;;;;;;;1.50;1.05;;;21.30;47.80;;;;;;5042541;28;20179;-64
2023/04/18 04:36:27;;;;;;;1.67;1.10;;;21.30;47.80;;;;;;5036577;28;20018;-63
2023/04/18 04:38:53;;;;;;;1.83;1.20;;;21.30;47.80;;;;;;5037129;28;20021;-64
2023/04/18 04:41:19;;;;;;;2.00;1.30;;;21.30;47.70;;;;;;5037579;28;20025;-64
2023/04/18 04:43:45;;;;;;;1.95;1.35;;;21.30;47.70;;;;;;5038687;28;20100;-63
2023/04/18 04:46:12;;;;;;;1.67;1.20;;;21.30;47.70;;;;;;5038565;28;20380;-64
2023/04/18 04:48:38;;;;;;;1.73;1.30;;;21.30;47.70;;;;;;5036795;28;20029;-64
2023/04/18 04:51:04;;;;;;;1.60;1.20;;;21.30;47.70;;;;;;5039582;28;20393;-64
2023/04/18 04:53:30;;;;;;;2.10;1.40;;;21.30;47.70;;;;;;5041292;28;20424;-64
2023/04/18 04:55:56;;;;;;;1.60;1.00;;;21.30;47.70;;;;;;5044535;28;20022;-64
2023/04/18 04:58:22;;;;;;;1.85;1.15;;;21.30;47.70;;;;;;5041421;28;20496;-64
2023/04/18 05:00:49;;;;;;;1.52;1.10;;;21.30;47.70;;;;;;5043164;28;20069;-64
2023/04/18 05:03:15;;;;;;;2.03;1.20;;;21.30;47.80;;;;;;5045572;28;20450;-64
2023/04/18 05:05:41;;;;;;;1.88;1.30;;;21.30;47.80;;;;;;5041371;28;20060;-63
2023/04/18 05:08:06;;;;;;;2.10;1.23;;;21.30;47.80;;;;;;5040508;28;20043;-63
2023/04/18 05:10:32;;;;;;;1.98;1.23;;;21.20;47.70;;;;;;5042576;28;20156;-64
2023/04/18 05:12:57;;;;;;;1.98;1.20;;;21.30;47.80;;;;;;5042460;28;20025;-63
2023/04/18 05:15:23;;;;;;;1.75;1.20;;;21.20;47.80;;;;;;5044038;28;20100;-63
2023/04/18 05:17:49;;;;;;;1.75;1.20;;;21.30;47.80;;;;;;5039890;28;20087;-63
2023/04/18 05:20:15;;;;;;;1.75;1.25;;;21.30;47.80;;;;;;5041729;28;20434;-63
2023/04/18 05:22:40;;;;;;;2.00;1.30;;;21.20;47.80;;;;;;5040314;28;20033;-63
2023/04/18 05:25:07;;;;;;;2.25;1.10;;;21.20;47.80;;;;;;5041027;28;20024;-63
2023/04/18 05:27:32;;;;;;;1.95;1.20;;;21.30;47.80;;;;;;5042103;28;20500;-63
2023/04/18 05:29:58;;;;;;;1.67;1.00;;;21.30;47.80;;;;;;5040155;28;20036;-64
2023/04/18 05:32:23;;;;;;;1.90;1.20;;;21.30;47.80;;;;;;5041030;28;20477;-63
2023/04/18 05:34:49;;;;;;;1.70;1.15;;;21.30;47.80;;;;;;5044509;28;20037;-63
2023/04/18 05:37:15;;;;;;;1.50;1.10;;;21.30;47.80;;;;;;5041696;28;20025;-63
2023/04/18 05:39:41;;;;;;;1.63;1.20;;;21.30;47.80;;;;;;5045654;28;20029;-63
2023/04/18 05:42:07;;;;;;;1.90;1.20;;;21.20;47.70;;;;;;5041967;28;20059;-63
2023/04/18 05:44:33;;;;;;;1.92;1.13;;;21.30;47.80;;;;;;5041635;28;20105;-63
2023/04/18 05:46:58;;;;;;;1.40;1.05;;;21.30;47.80;;;;;;5041039;28;20106;-64
2023/04/18 05:49:24;;;;;;;1.88;1.15;;;21.30;47.80;;;;;;5040966;28;20032;-64
2023/04/18 05:51:51;;;;;;;1.55;1.13;;;21.30;47.80;;;;;;5042362;28;20014;-63
2023/04/18 05:54:17;;;;;;;2.42;1.27;;;21.30;47.80;;;;;;5039023;28;20021;-63
2023/04/18 05:56:43;;;;;;;2.25;1.20;;;21.20;47.70;;;;;;5042915;28;20025;-63
2023/04/18 05:59:09;;;;;;;1.63;1.17;;;21.30;47.80;;;;;;5044206;28;20036;-64
2023/04/18 06:01:34;;;;;;;2.35;1.40;;;21.20;47.70;;;;;;5039738;28;20049;-63
2023/04/18 06:04:00;;;;;;;2.10;1.30;;;21.20;47.70;;;;;;5041747;28;20029;-64
2023/04/18 06:06:26;;;;;;;1.52;1.10;;;21.30;47.80;;;;;;5040098;28;20029;-63
2023/04/18 06:08:52;;;;;;;1.65;1.13;;;21.30;47.80;;;;;;5040296;28;20389;-63
2023/04/18 06:11:20;;;;;;;1.58;1.13;;;21.30;47.80;;;;;;5041032;28;20567;-63
2023/04/18 06:13:45;;;;;;;1.98;1.25;;;21.30;47.80;;;;;;5041892;28;20448;-63
2023/04/18 06:16:11;;;;;;;2.72;1.77;;;21.20;47.70;;;;;;5042340;28;20029;-64
2023/04/18 06:18:37;;;;;;;2.20;1.30;;;21.20;47.70;;;;;;5044487;28;20064;-64
2023/04/18 06:21:03;;;;;;;2.05;1.40;;;21.20;47.70;;;;;;5042312;28;20029;-64
2023/04/18 06:23:29;;;;;;;1.65;1.20;;;21.20;47.70;;;;;;5039342;28;20390;-63
2023/04/18 06:25:55;;;;;;;2.10;1.38;;;21.20;47.70;;;;;;5042486;28;20025;-63
2023/04/18 06:28:21;;;;;;;1.90;1.30;;;21.20;47.80;;;;;;5041481;28;20037;-63
2023/04/18 06:30:46;;;;;;;1.98;1.30;;;21.20;47.80;;;;;;5037009;28;20477;-64
2023/04/18 06:33:12;;;;;;;1.90;1.30;;;21.20;47.80;;;;;;5041135;28;20051;-64
2023/04/18 06:35:38;;;;;;;2.70;1.40;;;21.20;47.70;;;;;;5039534;28;20036;-64
2023/04/18 06:38:04;;;;;;;2.08;1.40;;;21.20;47.70;;;;;;5039253;28;20033;-63
2023/04/18 06:40:29;;;;;;;2.20;1.38;;;21.20;47.70;;;;;;5040735;28;20094;-63
2023/04/18 06:42:55;;;;;;;2.10;1.45;;;21.20;47.70;;;;;;5042421;28;20030;-63
2023/04/18 06:45:21;;;;;;;1.83;1.35;;;21.20;47.80;;;;;;5041571;28;20363;-63
2023/04/18 06:47:47;;;;;;;1.92;1.33;;;21.20;47.80;;;;;;5041143;28;20474;-64
2023/04/18 06:50:14;;;;;;;1.80;1.30;;;21.20;47.80;;;;;;5040278;28;20400;-64
2023/04/18 06:52:43;;;;;;;1.95;1.30;;;21.20;47.80;;;;;;5042253;28;20053;-63
2023/04/18 06:55:10;;;;;;;1.67;1.23;;;21.20;47.70;;;;;;5041632;28;20029;-64
2023/04/18 06:57:36;;;;;;;1.90;1.40;;;21.20;47.70;;;;;;5041781;28;20592;-64
2023/04/18 07:00:03;;;;;;;2.50;1.38;;;21.20;47.70;;;;;;5042191;28;20029;-64
2023/04/18 07:02:29;;;;;;;1.92;1.38;;;21.20;47.80;;;;;;5041408;28;20064;-63
2023/04/18 07:04:55;;;;;;;2.28;1.30;;;21.20;47.80;;;;;;5041424;28;20075;-64
2023/04/18 07:07:20;;;;;;;1.90;1.20;;;21.20;47.70;;;;;;5038844;28;20382;-63
2023/04/18 07:09:46;;;;;;;1.80;1.30;;;21.20;47.70;;;;;;5040299;28;20025;-63
2023/04/18 07:12:11;;;;;;;2.08;1.38;;;21.20;47.70;;;;;;5041397;28;20021;-63
2023/04/18 07:14:37;;;;;;;2.28;1.30;;;21.20;47.70;;;;;;5040705;28;20022;-64
2023/04/18 07:17:03;;;;;;;1.90;1.30;;;21.20;47.70;;;;;;5041195;28;20033;-63
2023/04/18 07:19:29;;;;;;;2.85;1.75;;;21.20;47.70;;;;;;5041474;28;20206;-66
2023/04/18 07:21:55;;;;;;;1.90;1.30;;;21.30;47.80;;;;;;5040950;28;20025;-66
2023/04/18 07:24:22;;;;;;;3.08;1.40;;;21.30;47.70;;;;;;5039528;28;20041;-66
2023/04/18 07:26:49;;;;;;;2.33;1.50;;;21.30;47.80;;;;;;5040391;28;20032;-66
2023/04/18 07:29:15;;;;;;;1.92;1.23;;;21.30;47.70;;;;;;5039657;28;20060;-67
2023/04/18 07:31:40;;;;;;;2.03;1.40;;;21.20;47.60;;;;;;5040366;28;20102;-66
2023/04/18 07:34:07;;;;;;;1.95;1.40;;;21.30;47.70;;;;;;5039658;28;20098;-66
2023/04/18 07:36:33;;;;;;;2.00;1.20;;;21.30;47.70;;;;;;5036532;28;20021;-64
2023/04/18 07:39:00;;;;;;;2.15;1.50;;;21.30;47.70;;;;;;5039033;28;20021;-64
2023/04/18 07:41:26;;;;;;;1.73;1.30;;;21.30;47.70;;;;;;5039495;28;20040;-65
2023/04/18 07:43:52;;;;;;;2.60;1.50;;;21.30;47.70;;;;;;5041007;28;20384;-66
2023/04/18 07:46:17;;;;;;;1.98;1.45;;;21.30;47.80;;;;;;5039516;28;20429;-66
2023/04/18 07:48:43;;;;;;;2.25;1.48;;;21.30;47.70;;;;;;5039722;28;20040;-66
2023/04/18 07:51:10;;;;;;;2.40;1.80;;;21.30;47.80;;;;;;5039539;28;20500;-66
2023/04/18 07:53:36;;;;;;;2.42;1.63;;;21.30;47.80;;;;;;5039247;28;20537;-66
2023/04/18 07:56:02;;;;;;;1.90;1.40;;;21.30;47.80;;;;;;5039839;28;20092;-66
2023/04/18 07:58:28;;;;;;;2.90;1.77;;;21.30;47.80;;;;;;5038843;28;20021;-66
2023/04/18 08:00:53;;;;;;;1.90;1.38;;;21.30;47.80;;;;;;5040320;28;20060;-66
2023/04/18 08:03:19;;;;;;;2.17;1.70;;;21.30;47.80;;;;;;5041067;28;20489;-66
2023/04/18 08:05:45;;;;;;;2.50;1.55;;;21.30;47.80;;;;;;5039867;28;20116;-66
2023/04/18 08:08:11;;;;;;;3.10;1.63;;;21.30;47.80;;;;;;5037367;28;20035;-66
2023/04/18 08:10:37;;;;;;;2.00;1.40;;;21.30;47.90;;;;;;5039852;28;20396;-66
2023/04/18 08:13:03;;;;;;;2.53;1.60;;;21.30;47.90;;;;;;5037109;28;20025;-66
2023/04/18 08:15:31;;;;;;;3.58;1.90;;;21.40;47.90;;;;;;5038924;28;20014;-66
2023/04/18 08:17:57;;;;;;;2.50;1.65;;;21.30;47.90;;;;;;5039980;28;20476;-66
2023/04/18 08:20:23;;;;;;;2.70;1.98;;;21.30;47.90;;;;;;5037986;28;20358;-66
2023/04/18 08:22:48;;;;;;;2.28;1.50;;;21.30;47.90;;;;;;5041052;28;20098;-66
2023/04/18 08:25:16;;;;;;;2.40;1.60;;;21.30;47.90;;;;;;5039864;28;20052;-66
2023/04/18 08:27:42;;;;;;;2.60;1.65;;;21.30;47.90;;;;;;5036579;28;20029;-66
2023/04/18 08:30:08;;;;;;;2.60;1.70;;;21.30;48.00;;;;;;5040713;28;20090;-67
2023/04/18 08:32:35;;;;;;;2.22;1.60;;;21.40;48.00;;;;;;5041288;28;20504;-66
2023/04/18 08:35:02;;;;;;;2.40;1.60;;;21.40;48.00;;;;;;5041945;28;20022;-66
2023/04/18 08:37:29;;;;;;;2.63;1.85;;;21.40;48.00;;;;;;5039593;28;20025;-66
2023/04/18 08:39:54;;;;;;;2.40;1.52;;;21.40;48.00;;;;;;5038287;28;20600;-66
2023/04/18 08:42:22;;;;;;;2.90;1.70;;;21.40;48.00;;;;;;5040502;28;20108;-66
2023/04/18 08:44:48;;;;;;;2.47;1.70;;;21.40;48.00;;;;;;5039734;28;20539;-65
2023/04/18 08:47:15;;;;;;;2.47;1.70;;;21.40;48.00;;;;;;5038085;28;20036;-66
2023/04/18 08:49:42;;;;;;;2.33;1.70;;;21.40;48.00;;;;;;5038895;28;20030;-66
2023/04/18 08:52:12;;;;;;;3.28;1.60;;;21.40;48.00;;;;;;5039531;28;20080;-66
2023/04/18 08:54:41;;;;;;;2.70;1.98;;;21.40;48.00;;;;;;5040778;28;20109;-66
2023/04/18 08:57:17;;;;;;;2.40;1.70;;;21.40;48.00;;;;;;5038963;28;20029;-66
2023/04/18 08:59:45;;;;;;;2.97;2.00;;;21.40;48.00;;;;;;5044130;28;20092;-66
2023/04/18 09:02:14;;;;;;;2.88;2.20;;;21.40;48.00;;;;;;5037304;28;20504;-66
2023/04/18 09:04:44;;;;;;;2.67;1.88;;;21.40;48.00;;;;;;5036631;28;20948;-66
2023/04/18 09:07:15;;;;;;;2.92;1.80;;;21.40;48.10;;;;;;5039304;28;20029;-66
2023/04/18 09:09:56;;;;;;;3.15;1.70;;;21.40;48.00;;;;;;5038483;28;20488;-66
2023/04/18 09:12:24;;;;;;;2.15;1.67;;;21.40;48.00;;;;;;5038629;28;20029;-66
2023/04/18 09:14:52;;;;;;;2.70;1.80;;;21.40;48.00;;;;;;5040259;28;20028;-66
2023/04/18 09:17:52;;;;;;;2.60;1.75;;;21.50;48.00;;;;;;5035758;28;20040;-66
2023/04/18 09:20:29;;;;;;;2.35;1.70;;;21.40;48.00;;;;;;5040665;28;20477;-66
2023/04/18 09:22:59;;;;;;;2.97;1.80;;;21.50;48.00;;;;;;5038464;28;20021;-66
2023/04/18 09:25:36;;;;;;;2.40;1.80;;;21.40;48.00;;;;;;5036348;28;20040;-66
2023/04/18 09:28:25;;;;;;;2.13;1.60;;;21.50;48.00;;;;;;5038604;28;20029;-66
2023/04/18 09:30:51;;;;;;;2.30;1.70;;;21.50;48.00;;;;;;5038285;28;20548;-66
2023/04/18 09:33:27;;;;;;;2.72;1.80;;;21.50;48.00;;;;;;5037697;28;20021;-66
2023/04/18 09:35:54;;;;;;;2.50;1.80;;;21.50;48.00;;;;;;5038049;28;20108;-63
2023/04/18 09:38:36;;;;;;;2.20;1.63;;;21.50;48.00;;;;;;5042857;28;20517;-66
2023/04/18 09:41:14;;;;;;;2.58;1.70;;;21.50;48.00;;;;;;5041847;28;20029;-65
2023/04/18 09:43:40;;;;;;;2.47;1.63;;;21.50;48.00;;;;;;5043633;28;20489;-66
2023/04/18 09:46:08;;;;;;;2.22;1.60;;;21.50;47.90;;;;;;5044232;28;20147;-66
2023/04/18 09:48:34;;;;;;;2.40;1.80;;;21.50;47.90;;;;;;5043348;28;20075;-66
2023/04/18 09:51:12;;;;;;;2.53;1.83;;;21.50;47.90;;;;;;5042905;28;20041;-66
2023/04/18 09:53:49;;;;;;;2.60;1.90;;;21.50;47.90;;;;;;5041235;28;20033;-66
2023/04/18 09:56:31;;;;;;;2.20;1.60;;;21.50;47.90;;;;;;5039776;28;20021;-66
2023/04/18 09:59:07;;;;;;;2.30;1.50;;;21.50;47.90;;;;;;5046257;28;20029;-66
2023/04/18 10:01:33;;;;;;;2.20;1.60;;;21.50;47.90;;;;;;5045703;28;20093;-66
2023/04/18 10:04:03;;;;;;;2.10;1.60;;;21.50;47.90;;;;;;5041466;28;20485;-66
2023/04/18 10:06:29;;;;;;;2.45;1.77;;;21.50;47.80;;;;;;5042763;28;20477;-66
2023/04/18 10:08:55;;;;;;;2.67;1.83;;;21.50;47.90;;;;;;5041598;28;20078;-66
2023/04/18 10:11:22;;;;;;;2.53;1.70;;;21.50;47.80;;;;;;5040663;28;20033;-67
2023/04/18 10:13:52;;;;;;;2.17;1.70;;;21.50;47.80;;;;;;5039974;28;20056;-66
2023/04/18 10:16:19;;;;;;;2.55;1.70;;;21.50;47.80;;;;;;5041708;28;20477;-66
2023/04/18 10:18:45;;;;;;;2.50;1.73;;;21.50;47.80;;;;;;5042506;28;20025;-66
2023/04/18 10:21:11;;;;;;;2.97;2.00;;;21.50;47.80;;;;;;5041682;28;20036;-66
2023/04/18 10:23:38;;;;;;;2.58;1.88;;;21.50;47.70;;;;;;5038879;28;20030;-66
2023/04/18 10:26:05;;;;;;;2.25;1.70;;;21.50;47.80;;;;;;5041496;28;20512;-66
2023/04/18 10:28:51;;;;;;;2.08;1.67;;;21.60;48.00;;;;;;5040892;28;20166;-66
2023/04/18 10:31:18;;;;;;;2.40;1.70;;;21.50;47.70;;;;;;5042770;28;20033;-66
2023/04/18 10:33:48;;;;;;;2.47;1.70;;;21.50;47.70;;;;;;5041483;28;20551;-66
2023/04/18 10:36:16;;;;;;;2.30;1.60;;;21.50;47.70;;;;;;5040924;28;20032;-66
2023/04/18 10:39:13;;;;;;;2.40;1.60;;;21.50;47.70;;;;;;5040971;28;20048;-66
2023/04/18 10:41:47;;;;;;;2.33;1.60;;;21.50;47.70;;;;;;5071717;28;20037;-66
2023/04/18 10:44:17;;;;;;;2.53;2.00;;;21.50;47.60;;;;;;5043373;28;20029;-66
2023/04/18 10:46:42;;;;;;;2.45;1.77;;;21.50;47.60;;;;;;5043091;28;20021;-66
2023/04/18 10:49:15;;;;;;;2.00;1.50;;;21.50;47.70;;;;;;5040159;28;20443;-66
2023/04/18 10:51:43;;;;;;;2.55;1.90;;;21.50;47.60;;;;;;5043707;28;20385;-66
2023/04/18 10:54:10;;;;;;;2.20;1.60;;;21.50;47.60;;;;;;5039384;28;20018;-67
2023/04/18 10:56:36;;;;;;;2.10;1.55;;;21.50;47.60;;;;;;5042256;28;20090;-66
2023/04/18 10:59:02;;;;;;;2.65;1.85;;;21.50;47.60;;;;;;5041661;28;20384;-66
2023/04/18 11:01:35;;;;;;;2.58;1.80;;;21.50;47.60;;;;;;5042197;28;20517;-66
2023/04/18 11:04:09;;;;;;;2.55;1.80;;;21.50;47.50;;;;;;5041500;28;20128;-65
2023/04/18 11:06:46;;;;;;;2.28;1.67;;;21.50;47.50;;;;;;5040281;28;20029;-65
2023/04/18 11:09:12;;;;;;;2.58;1.88;;;21.50;47.50;;;;;;5039167;28;20020;-66
2023/04/18 11:11:39;;;;;;;2.00;1.52;;;21.50;47.50;;;;;;5040819;28;20083;-66
2023/04/18 11:14:05;;;;;;;2.50;1.70;;;21.60;47.50;;;;;;5042219;28;20492;-65
2023/04/18 11:16:32;;;;;;;2.53;1.65;;;21.50;47.50;;;;;;5041514;28;20089;-66
2023/04/18 11:18:58;;;;;;;2.40;1.50;;;21.50;47.40;;;;;;5044059;28;20477;-64
2023/04/18 11:21:27;;;;;;;2.30;1.60;;;21.60;47.50;;;;;;5041519;28;20082;-66
2023/04/18 11:23:55;;;;;;;2.40;1.65;;;21.50;47.40;;;;;;5041938;28;20493;-66
2023/04/18 11:26:27;;;;;;;2.20;1.60;;;21.60;47.50;;;;;;5036757;28;20081;-63
2023/04/18 11:28:56;;;;;;;2.70;1.70;;;21.60;47.50;;;;;;5033096;28;20587;-64
2023/04/18 11:31:23;;;;;;;2.22;1.60;;;21.60;47.60;;;;;;5043650;28;20029;-66
2023/04/18 11:33:55;;;;;;;2.15;1.65;;;21.60;47.50;;;;;;5040883;28;20029;-66
2023/04/18 11:36:20;;;;;;;2.50;1.75;;;21.50;47.50;;;;;;5037529;28;20068;-66
2023/04/18 11:38:46;;;;;;;2.95;1.77;;;21.60;47.50;;;;;;5038800;28;20076;-66
2023/04/18 11:41:16;;;;;;;2.20;1.60;;;21.60;47.50;;;;;;5036394;28;20029;-66
2023/04/18 11:43:45;;;;;;;2.30;1.70;;;21.60;47.50;;;;;;5038994;28;20033;-66
2023/04/18 11:46:12;;;;;;;2.25;1.67;;;21.60;47.50;;;;;;5040798;28;20040;-66
2023/04/18 11:48:44;;;;;;;3.10;1.77;;;21.60;47.50;;;;;;5036971;28;20445;-66
2023/04/18 11:51:34;;;;;;;2.50;1.60;;;21.60;47.50;;;;;;5038459;28;20025;-65
2023/04/18 11:54:01;;;;;;;2.20;1.55;;;21.60;47.50;;;;;;5041243;28;20033;-66
2023/04/18 11:56:26;;;;;;;2.70;1.70;;;21.60;47.50;;;;;;5037630;28;20464;-66
2023/04/18 11:58:52;;;;;;;2.40;1.70;;;21.60;47.50;;;;;;5041858;28;20033;-66
2023/04/18 12:01:23;;;;;;;2.10;1.60;;;21.60;47.50;;;;;;5040095;28;20548;-66
2023/04/18 12:04:03;;;;;;;2.80;1.80;;;21.60;47.40;;;;;;5039863;28;20024;-66
2023/04/18 12:06:48;;;;;;;2.17;1.60;;;21.60;47.40;;;;;;5039447;28;20070;-67
2023/04/18 12:09:15;;;;;;;2.17;1.60;;;21.60;47.40;;;;;;5038555;28;20025;-65
2023/04/18 12:11:41;;;;;;;2.17;1.70;;;21.60;47.40;;;;;;5038279;28;20017;-66
2023/04/18 12:14:19;;;;;;;2.10;1.60;;;21.60;47.40;;;;;;5039162;28;20036;-65
2023/04/18 12:16:44;;;;;;;2.15;1.60;;;21.60;47.40;;;;;;5039954;28;20476;-66
2023/04/18 12:19:12;;;;;;;2.50;1.60;;;21.60;47.40;;;;;;5038522;28;20032;-65
2023/04/18 12:21:56;;;;;;;2.00;1.63;;;21.60;47.40;;;;;;5039585;28;20021;-67
2023/04/18 12:24:25;;;;;;;2.63;1.60;;;21.60;47.30;;;;;;5039382;28;20037;-66
2023/04/18 12:26:51;;;;;;;2.10;1.55;;;21.60;47.30;;;;;;5037503;28;20495;-66
2023/04/18 12:29:17;;;;;;;2.92;1.90;;;21.60;47.30;;;;;;5038169;28;20037;-66
2023/04/18 12:31:44;;;;;;;2.30;1.55;;;21.60;47.30;;;;;;5034036;28;20098;-66
2023/04/18 12:34:10;;;;;;;3.08;1.60;;;21.60;47.30;;;;;;5039447;28;20029;-66
2023/04/18 12:36:36;;;;;;;2.22;1.60;;;21.60;47.30;;;;;;5040594;28;20508;-66
2023/04/18 12:39:01;;;;;;;2.20;1.50;;;21.60;47.30;;;;;;5039028;28;20060;-66
2023/04/18 12:41:27;;;;;;;2.00;1.50;;;21.60;47.20;;;;;;5036734;28;20104;-66
2023/04/18 12:43:52;;;;;;;2.85;1.60;;;21.60;47.20;;;;;;5038609;28;20026;-65
2023/04/18 12:46:18;;;;;;;2.40;1.40;;;21.60;47.20;;;;;;5039225;28;20397;-65
2023/04/18 12:48:44;;;;;;;2.38;1.75;;;21.60;47.20;;;;;;5039226;28;20021;-65